sensor_id;sensor_type;location;lat;lon;timestamp;P1;durP1;ratioP1;P2;durP2;ratioP2
17927;SDS011;9089;58.396;15.544;2022-07-12T00:01:40;1.38;;;1.20;;
17927;SDS011;9089;58.396;15.544;2022-07-12T00:04:06;2.40;;;1.25;;
17927;SDS011;9089;58.396;15.544;2022-07-12T00:06:32;2.80;;;1.33;;
17927;SDS011;9089;58.396;15.544;2022-07-12T00:08:57;2.40;;;1.30;;
17927;SDS011;9089;58.396;15.544;2022-07-12T00:11:25;1.40;;;1.10;;
17927;SDS011;9089;58.396;15.544;2022-07-12T00:13:50;4.18;;;1.20;;
17927;SDS011;9089;58.396;15.544;2022-07-12T00:16:16;3.63;;;1.40;;
17927;SDS011;9089;58.396;15.544;2022-07-12T00:18:42;1.10;;;1.10;;
17927;SDS011;9089;58.396;15.544;2022-07-12T00:21:07;3.10;;;1.40;;
17927;SDS011;9089;58.396;15.544;2022-07-12T00:23:33;2.05;;;1.10;;
17927;SDS011;9089;58.396;15.544;2022-07-12T00:25:59;1.73;;;1.45;;
17927;SDS011;9089;58.396;15.544;2022-07-12T00:28:30;2.50;;;1.35;;
17927;SDS011;9089;58.396;15.544;2022-07-12T00:30:57;1.60;;;1.23;;
17927;SDS011;9089;58.396;15.544;2022-07-12T00:33:22;1.17;;;1.13;;
17927;SDS011;9089;58.396;15.544;2022-07-12T00:35:48;2.28;;;1.33;;
17927;SDS011;9089;58.396;15.544;2022-07-12T00:38:14;1.27;;;1.17;;
17927;SDS011;9089;58.396;15.544;2022-07-12T00:40:40;1.05;;;1.00;;
17927;SDS011;9089;58.396;15.544;2022-07-12T00:43:05;1.90;;;1.38;;
17927;SDS011;9089;58.396;15.544;2022-07-12T00:45:33;1.92;;;1.35;;
17927;SDS011;9089;58.396;15.544;2022-07-12T00:47:58;1.48;;;1.30;;
17927;SDS011;9089;58.396;15.544;2022-07-12T00:50:24;1.58;;;1.40;;
17927;SDS011;9089;58.396;15.544;2022-07-12T00:52:51;2.05;;;1.70;;
17927;SDS011;9089;58.396;15.544;2022-07-12T00:55:19;2.05;;;1.27;;
17927;SDS011;9089;58.396;15.544;2022-07-12T00:57:46;1.38;;;1.17;;
17927;SDS011;9089;58.396;15.544;2022-07-12T01:00:15;2.80;;;1.20;;
17927;SDS011;9089;58.396;15.544;2022-07-12T01:02:43;1.77;;;1.58;;
17927;SDS011;9089;58.396;15.544;2022-07-12T01:05:10;3.08;;;1.00;;
17927;SDS011;9089;58.396;15.544;2022-07-12T01:07:36;1.58;;;1.48;;
17927;SDS011;9089;58.396;15.544;2022-07-12T01:10:02;1.90;;;1.30;;
17927;SDS011;9089;58.396;15.544;2022-07-12T01:12:29;1.52;;;1.13;;
17927;SDS011;9089;58.396;15.544;2022-07-12T01:14:55;1.20;;;1.10;;
17927;SDS011;9089;58.396;15.544;2022-07-12T01:17:22;1.25;;;1.13;;
17927;SDS011;9089;58.396;15.544;2022-07-12T01:19:50;2.22;;;1.33;;
17927;SDS011;9089;58.396;15.544;2022-07-12T01:22:17;2.17;;;1.10;;
17927;SDS011;9089;58.396;15.544;2022-07-12T01:24:45;3.08;;;1.23;;
17927;SDS011;9089;58.396;15.544;2022-07-12T01:27:10;1.50;;;1.08;;
17927;SDS011;9089;58.396;15.544;2022-07-12T01:29:37;1.02;;;1.02;;
17927;SDS011;9089;58.396;15.544;2022-07-12T01:32:03;2.65;;;1.30;;
17927;SDS011;9089;58.396;15.544;2022-07-12T01:34:50;1.55;;;1.20;;
17927;SDS011;9089;58.396;15.544;2022-07-12T01:37:17;6.00;;;1.02;;
17927;SDS011;9089;58.396;15.544;2022-07-12T01:39:46;2.20;;;0.95;;
17927;SDS011;9089;58.396;15.544;2022-07-12T01:42:14;4.60;;;1.42;;
17927;SDS011;9089;58.396;15.544;2022-07-12T01:44:40;1.40;;;0.90;;
17927;SDS011;9089;58.396;15.544;2022-07-12T01:47:06;3.42;;;1.10;;
17927;SDS011;9089;58.396;15.544;2022-07-12T01:49:31;3.83;;;1.05;;
17927;SDS011;9089;58.396;15.544;2022-07-12T01:51:57;3.75;;;1.05;;
17927;SDS011;9089;58.396;15.544;2022-07-12T01:54:24;1.67;;;1.10;;
17927;SDS011;9089;58.396;15.544;2022-07-12T01:56:52;1.35;;;1.00;;
17927;SDS011;9089;58.396;15.544;2022-07-12T01:59:18;1.90;;;0.90;;
17927;SDS011;9089;58.396;15.544;2022-07-12T02:01:44;0.98;;;0.98;;
17927;SDS011;9089;58.396;15.544;2022-07-12T02:04:10;1.30;;;1.10;;
17927;SDS011;9089;58.396;15.544;2022-07-12T02:06:36;1.90;;;1.33;;
17927;SDS011;9089;58.396;15.544;2022-07-12T02:09:03;2.00;;;1.20;;
17927;SDS011;9089;58.396;15.544;2022-07-12T02:11:29;1.13;;;1.02;;
17927;SDS011;9089;58.396;15.544;2022-07-12T02:13:57;1.08;;;1.00;;
17927;SDS011;9089;58.396;15.544;2022-07-12T02:16:22;3.22;;;1.10;;
17927;SDS011;9089;58.396;15.544;2022-07-12T02:18:48;5.57;;;1.35;;
17927;SDS011;9089;58.396;15.544;2022-07-12T02:21:14;4.47;;;1.17;;
17927;SDS011;9089;58.396;15.544;2022-07-12T02:23:39;1.20;;;1.10;;
17927;SDS011;9089;58.396;15.544;2022-07-12T02:26:05;2.90;;;1.15;;
17927;SDS011;9089;58.396;15.544;2022-07-12T02:28:31;2.35;;;1.00;;
17927;SDS011;9089;58.396;15.544;2022-07-12T02:30:58;3.15;;;1.20;;
17927;SDS011;9089;58.396;15.544;2022-07-12T02:33:24;3.67;;;1.00;;
17927;SDS011;9089;58.396;15.544;2022-07-12T02:35:50;2.63;;;1.30;;
17927;SDS011;9089;58.396;15.544;2022-07-12T02:38:16;1.10;;;1.10;;
17927;SDS011;9089;58.396;15.544;2022-07-12T02:40:42;1.20;;;1.05;;
17927;SDS011;9089;58.396;15.544;2022-07-12T02:43:19;2.53;;;1.30;;
17927;SDS011;9089;58.396;15.544;2022-07-12T02:45:46;1.90;;;1.30;;
17927;SDS011;9089;58.396;15.544;2022-07-12T02:48:13;1.70;;;1.60;;
17927;SDS011;9089;58.396;15.544;2022-07-12T02:50:38;1.70;;;1.60;;
17927;SDS011;9089;58.396;15.544;2022-07-12T02:53:04;1.52;;;1.40;;
17927;SDS011;9089;58.396;15.544;2022-07-12T02:55:30;2.72;;;1.30;;
17927;SDS011;9089;58.396;15.544;2022-07-12T02:57:56;1.42;;;1.25;;
17927;SDS011;9089;58.396;15.544;2022-07-12T03:00:22;1.52;;;1.42;;
17927;SDS011;9089;58.396;15.544;2022-07-12T03:02:47;1.85;;;1.65;;
17927;SDS011;9089;58.396;15.544;2022-07-12T03:05:14;2.45;;;1.50;;
17927;SDS011;9089;58.396;15.544;2022-07-12T03:07:40;1.95;;;1.40;;
17927;SDS011;9089;58.396;15.544;2022-07-12T03:10:06;2.28;;;1.80;;
17927;SDS011;9089;58.396;15.544;2022-07-12T03:12:32;1.67;;;1.52;;
17927;SDS011;9089;58.396;15.544;2022-07-12T03:14:59;1.52;;;1.42;;
17927;SDS011;9089;58.396;15.544;2022-07-12T03:17:24;3.05;;;1.50;;
17927;SDS011;9089;58.396;15.544;2022-07-12T03:19:50;2.22;;;1.33;;
17927;SDS011;9089;58.396;15.544;2022-07-12T03:22:17;1.60;;;1.40;;
17927;SDS011;9089;58.396;15.544;2022-07-12T03:24:43;1.80;;;1.70;;
17927;SDS011;9089;58.396;15.544;2022-07-12T03:27:09;3.55;;;1.48;;
17927;SDS011;9089;58.396;15.544;2022-07-12T03:29:35;1.40;;;1.30;;
17927;SDS011;9089;58.396;15.544;2022-07-12T03:32:01;1.70;;;1.60;;
17927;SDS011;9089;58.396;15.544;2022-07-12T03:34:26;3.83;;;1.50;;
17927;SDS011;9089;58.396;15.544;2022-07-12T03:36:52;1.45;;;1.33;;
17927;SDS011;9089;58.396;15.544;2022-07-12T03:39:19;2.25;;;1.50;;
17927;SDS011;9089;58.396;15.544;2022-07-12T03:41:45;2.83;;;1.83;;
17927;SDS011;9089;58.396;15.544;2022-07-12T03:44:10;2.33;;;1.75;;
17927;SDS011;9089;58.396;15.544;2022-07-12T03:46:36;2.58;;;1.45;;
17927;SDS011;9089;58.396;15.544;2022-07-12T03:49:02;2.85;;;1.80;;
17927;SDS011;9089;58.396;15.544;2022-07-12T03:51:27;3.53;;;2.13;;
17927;SDS011;9089;58.396;15.544;2022-07-12T03:53:53;2.67;;;1.70;;
17927;SDS011;9089;58.396;15.544;2022-07-12T03:56:20;1.90;;;1.50;;
17927;SDS011;9089;58.396;15.544;2022-07-12T03:59:05;1.63;;;1.40;;
17927;SDS011;9089;58.396;15.544;2022-07-12T04:01:31;2.15;;;1.88;;
17927;SDS011;9089;58.396;15.544;2022-07-12T04:03:56;1.88;;;1.67;;
17927;SDS011;9089;58.396;15.544;2022-07-12T04:06:22;1.55;;;1.45;;
17927;SDS011;9089;58.396;15.544;2022-07-12T04:08:48;1.77;;;1.67;;
17927;SDS011;9089;58.396;15.544;2022-07-12T04:11:14;3.20;;;1.30;;
17927;SDS011;9089;58.396;15.544;2022-07-12T04:13:41;2.58;;;1.48;;
17927;SDS011;9089;58.396;15.544;2022-07-12T04:16:07;4.63;;;1.50;;
17927;SDS011;9089;58.396;15.544;2022-07-12T04:18:32;1.77;;;1.40;;
17927;SDS011;9089;58.396;15.544;2022-07-12T04:20:58;1.48;;;1.30;;
17927;SDS011;9089;58.396;15.544;2022-07-12T04:23:24;2.25;;;1.10;;
17927;SDS011;9089;58.396;15.544;2022-07-12T04:25:50;2.22;;;1.27;;
17927;SDS011;9089;58.396;15.544;2022-07-12T04:28:16;3.58;;;1.25;;
17927;SDS011;9089;58.396;15.544;2022-07-12T04:30:43;1.85;;;1.15;;
17927;SDS011;9089;58.396;15.544;2022-07-12T04:33:09;1.65;;;1.00;;
17927;SDS011;9089;58.396;15.544;2022-07-12T04:35:35;2.95;;;1.33;;
17927;SDS011;9089;58.396;15.544;2022-07-12T04:38:01;4.43;;;1.40;;
17927;SDS011;9089;58.396;15.544;2022-07-12T04:40:27;1.38;;;1.10;;
17927;SDS011;9089;58.396;15.544;2022-07-12T04:42:53;2.35;;;1.30;;
17927;SDS011;9089;58.396;15.544;2022-07-12T04:45:18;1.38;;;1.27;;
17927;SDS011;9089;58.396;15.544;2022-07-12T04:47:45;2.95;;;1.15;;
17927;SDS011;9089;58.396;15.544;2022-07-12T04:50:11;1.98;;;1.25;;
17927;SDS011;9089;58.396;15.544;2022-07-12T04:52:37;3.08;;;1.27;;
17927;SDS011;9089;58.396;15.544;2022-07-12T04:55:03;3.42;;;1.60;;
17927;SDS011;9089;58.396;15.544;2022-07-12T04:57:29;2.08;;;1.27;;
17927;SDS011;9089;58.396;15.544;2022-07-12T04:59:55;6.45;;;1.30;;
17927;SDS011;9089;58.396;15.544;2022-07-12T05:02:21;3.38;;;1.15;;
17927;SDS011;9089;58.396;15.544;2022-07-12T05:04:48;1.90;;;1.48;;
17927;SDS011;9089;58.396;15.544;2022-07-12T05:07:14;3.50;;;1.48;;
17927;SDS011;9089;58.396;15.544;2022-07-12T05:09:39;2.33;;;1.33;;
17927;SDS011;9089;58.396;15.544;2022-07-12T05:12:05;2.88;;;1.02;;
17927;SDS011;9089;58.396;15.544;2022-07-12T05:14:31;4.00;;;1.35;;
17927;SDS011;9089;58.396;15.544;2022-07-12T05:16:57;3.35;;;1.45;;
17927;SDS011;9089;58.396;15.544;2022-07-12T05:19:23;1.30;;;1.13;;
17927;SDS011;9089;58.396;15.544;2022-07-12T05:21:50;1.35;;;0.98;;
17927;SDS011;9089;58.396;15.544;2022-07-12T05:24:16;1.13;;;0.90;;
17927;SDS011;9089;58.396;15.544;2022-07-12T05:26:42;1.15;;;0.75;;
17927;SDS011;9089;58.396;15.544;2022-07-12T05:29:07;0.93;;;0.90;;
17927;SDS011;9089;58.396;15.544;2022-07-12T05:31:33;0.98;;;0.95;;
17927;SDS011;9089;58.396;15.544;2022-07-12T05:33:59;1.70;;;0.80;;
17927;SDS011;9089;58.396;15.544;2022-07-12T05:36:25;3.65;;;1.00;;
17927;SDS011;9089;58.396;15.544;2022-07-12T05:38:52;1.02;;;0.90;;
17927;SDS011;9089;58.396;15.544;2022-07-12T05:41:18;2.40;;;0.90;;
17927;SDS011;9089;58.396;15.544;2022-07-12T05:43:44;1.30;;;0.80;;
17927;SDS011;9089;58.396;15.544;2022-07-12T05:46:10;0.95;;;0.90;;
17927;SDS011;9089;58.396;15.544;2022-07-12T05:48:35;1.88;;;1.10;;
17927;SDS011;9089;58.396;15.544;2022-07-12T05:51:01;5.32;;;1.10;;
17927;SDS011;9089;58.396;15.544;2022-07-12T05:53:45;2.88;;;0.90;;
17927;SDS011;9089;58.396;15.544;2022-07-12T05:56:13;0.98;;;0.80;;
17927;SDS011;9089;58.396;15.544;2022-07-12T05:58:38;1.73;;;1.00;;
17927;SDS011;9089;58.396;15.544;2022-07-12T06:01:05;1.30;;;1.20;;
17927;SDS011;9089;58.396;15.544;2022-07-12T06:03:30;0.90;;;0.90;;
17927;SDS011;9089;58.396;15.544;2022-07-12T06:05:56;2.58;;;0.70;;
17927;SDS011;9089;58.396;15.544;2022-07-12T06:08:22;0.70;;;0.70;;
17927;SDS011;9089;58.396;15.544;2022-07-12T06:10:48;2.97;;;1.05;;
17927;SDS011;9089;58.396;15.544;2022-07-12T06:13:15;1.45;;;0.80;;
17927;SDS011;9089;58.396;15.544;2022-07-12T06:15:40;1.45;;;0.90;;
17927;SDS011;9089;58.396;15.544;2022-07-12T06:18:07;1.02;;;0.93;;
17927;SDS011;9089;58.396;15.544;2022-07-12T06:20:32;1.48;;;0.82;;
17927;SDS011;9089;58.396;15.544;2022-07-12T06:22:58;1.45;;;0.90;;
17927;SDS011;9089;58.396;15.544;2022-07-12T06:25:24;1.10;;;1.00;;
17927;SDS011;9089;58.396;15.544;2022-07-12T06:27:50;0.85;;;0.73;;
17927;SDS011;9089;58.396;15.544;2022-07-12T06:30:18;1.38;;;0.75;;
17927;SDS011;9089;58.396;15.544;2022-07-12T06:32:45;1.65;;;0.80;;
17927;SDS011;9089;58.396;15.544;2022-07-12T06:35:11;2.10;;;0.60;;
17927;SDS011;9089;58.396;15.544;2022-07-12T06:37:37;3.90;;;0.88;;
17927;SDS011;9089;58.396;15.544;2022-07-12T06:40:04;0.73;;;0.60;;
17927;SDS011;9089;58.396;15.544;2022-07-12T06:42:31;1.17;;;0.82;;
17927;SDS011;9089;58.396;15.544;2022-07-12T06:44:58;0.70;;;0.60;;
17927;SDS011;9089;58.396;15.544;2022-07-12T06:47:25;1.85;;;0.68;;
17927;SDS011;9089;58.396;15.544;2022-07-12T06:49:51;2.60;;;0.80;;
17927;SDS011;9089;58.396;15.544;2022-07-12T06:52:17;2.05;;;0.68;;
17927;SDS011;9089;58.396;15.544;2022-07-12T06:54:42;1.77;;;0.82;;
17927;SDS011;9089;58.396;15.544;2022-07-12T06:57:08;0.55;;;0.55;;
17927;SDS011;9089;58.396;15.544;2022-07-12T06:59:35;1.13;;;0.70;;
17927;SDS011;9089;58.396;15.544;2022-07-12T07:02:01;1.20;;;0.65;;
17927;SDS011;9089;58.396;15.544;2022-07-12T07:04:28;1.63;;;0.60;;
17927;SDS011;9089;58.396;15.544;2022-07-12T07:06:54;2.75;;;0.90;;
17927;SDS011;9089;58.396;15.544;2022-07-12T07:09:19;1.10;;;0.70;;
17927;SDS011;9089;58.396;15.544;2022-07-12T07:11:45;1.73;;;0.60;;
17927;SDS011;9089;58.396;15.544;2022-07-12T07:14:10;2.33;;;0.55;;
17927;SDS011;9089;58.396;15.544;2022-07-12T07:16:36;1.35;;;0.73;;
17927;SDS011;9089;58.396;15.544;2022-07-12T07:19:01;1.35;;;0.82;;
17927;SDS011;9089;58.396;15.544;2022-07-12T07:21:29;1.02;;;0.65;;
17927;SDS011;9089;58.396;15.544;2022-07-12T07:23:54;1.08;;;0.70;;
17927;SDS011;9089;58.396;15.544;2022-07-12T07:26:20;1.15;;;0.70;;
17927;SDS011;9089;58.396;15.544;2022-07-12T07:28:46;1.65;;;0.50;;
17927;SDS011;9089;58.396;15.544;2022-07-12T07:31:33;0.70;;;0.57;;
17927;SDS011;9089;58.396;15.544;2022-07-12T07:33:59;2.05;;;0.50;;
17927;SDS011;9089;58.396;15.544;2022-07-12T07:36:24;2.03;;;0.80;;
17927;SDS011;9089;58.396;15.544;2022-07-12T07:38:51;1.30;;;0.60;;
17927;SDS011;9089;58.396;15.544;2022-07-12T07:41:17;0.82;;;0.60;;
17927;SDS011;9089;58.396;15.544;2022-07-12T07:43:43;1.83;;;0.70;;
17927;SDS011;9089;58.396;15.544;2022-07-12T07:46:09;1.20;;;0.60;;
17927;SDS011;9089;58.396;15.544;2022-07-12T07:48:34;0.60;;;0.60;;
17927;SDS011;9089;58.396;15.544;2022-07-12T07:51:00;0.60;;;0.60;;
17927;SDS011;9089;58.396;15.544;2022-07-12T07:53:26;2.55;;;0.63;;
17927;SDS011;9089;58.396;15.544;2022-07-12T07:55:53;0.45;;;0.40;;
17927;SDS011;9089;58.396;15.544;2022-07-12T07:58:19;0.50;;;0.50;;
17927;SDS011;9089;58.396;15.544;2022-07-12T08:00:46;1.17;;;0.50;;
17927;SDS011;9089;58.396;15.544;2022-07-12T08:03:11;1.05;;;0.60;;
17927;SDS011;9089;58.396;15.544;2022-07-12T08:05:37;2.55;;;0.63;;
17927;SDS011;9089;58.396;15.544;2022-07-12T08:08:03;0.77;;;0.60;;
17927;SDS011;9089;58.396;15.544;2022-07-12T08:10:29;0.40;;;0.40;;
17927;SDS011;9089;58.396;15.544;2022-07-12T08:12:56;0.60;;;0.50;;
17927;SDS011;9089;58.396;15.544;2022-07-12T08:15:22;0.73;;;0.50;;
17927;SDS011;9089;58.396;15.544;2022-07-12T08:17:48;0.50;;;0.50;;
17927;SDS011;9089;58.396;15.544;2022-07-12T08:20:14;1.50;;;0.60;;
17927;SDS011;9089;58.396;15.544;2022-07-12T08:22:42;0.50;;;0.50;;
17927;SDS011;9089;58.396;15.544;2022-07-12T08:25:09;1.00;;;0.45;;
17927;SDS011;9089;58.396;15.544;2022-07-12T08:27:34;2.60;;;0.52;;
17927;SDS011;9089;58.396;15.544;2022-07-12T08:30:02;0.60;;;0.50;;
17927;SDS011;9089;58.396;15.544;2022-07-12T08:32:28;0.50;;;0.40;;
17927;SDS011;9089;58.396;15.544;2022-07-12T08:34:54;2.05;;;0.43;;
17927;SDS011;9089;58.396;15.544;2022-07-12T08:37:19;0.77;;;0.50;;
17927;SDS011;9089;58.396;15.544;2022-07-12T08:39:45;1.02;;;0.40;;
17927;SDS011;9089;58.396;15.544;2022-07-12T08:42:12;0.50;;;0.40;;
17927;SDS011;9089;58.396;15.544;2022-07-12T08:44:40;0.50;;;0.50;;
17927;SDS011;9089;58.396;15.544;2022-07-12T08:47:08;1.38;;;0.80;;
17927;SDS011;9089;58.396;15.544;2022-07-12T08:49:34;0.47;;;0.45;;
17927;SDS011;9089;58.396;15.544;2022-07-12T08:52:00;1.10;;;0.50;;
17927;SDS011;9089;58.396;15.544;2022-07-12T08:54:38;0.95;;;0.40;;
17927;SDS011;9089;58.396;15.544;2022-07-12T08:57:04;0.65;;;0.40;;
17927;SDS011;9089;58.396;15.544;2022-07-12T08:59:30;2.08;;;0.63;;
17927;SDS011;9089;58.396;15.544;2022-07-12T09:01:56;1.05;;;0.45;;
17927;SDS011;9089;58.396;15.544;2022-07-12T09:04:25;0.65;;;0.50;;
17927;SDS011;9089;58.396;15.544;2022-07-12T09:06:55;1.13;;;0.40;;
17927;SDS011;9089;58.396;15.544;2022-07-12T09:09:25;0.50;;;0.50;;
17927;SDS011;9089;58.396;15.544;2022-07-12T09:11:52;1.20;;;0.45;;
17927;SDS011;9089;58.396;15.544;2022-07-12T09:14:18;1.00;;;0.40;;
17927;SDS011;9089;58.396;15.544;2022-07-12T09:16:57;0.95;;;0.40;;
17927;SDS011;9089;58.396;15.544;2022-07-12T09:19:25;1.60;;;0.40;;
17927;SDS011;9089;58.396;15.544;2022-07-12T09:21:52;0.40;;;0.40;;
17927;SDS011;9089;58.396;15.544;2022-07-12T09:24:20;1.35;;;0.45;;
17927;SDS011;9089;58.396;15.544;2022-07-12T09:26:52;0.60;;;0.30;;
17927;SDS011;9089;58.396;15.544;2022-07-12T09:29:19;0.40;;;0.40;;
17927;SDS011;9089;58.396;15.544;2022-07-12T09:31:47;0.40;;;0.30;;
17927;SDS011;9089;58.396;15.544;2022-07-12T09:34:33;1.05;;;0.45;;
17927;SDS011;9089;58.396;15.544;2022-07-12T09:37:18;0.63;;;0.30;;
17927;SDS011;9089;58.396;15.544;2022-07-12T09:39:45;0.50;;;0.40;;
17927;SDS011;9089;58.396;15.544;2022-07-12T09:42:11;0.65;;;0.60;;
17927;SDS011;9089;58.396;15.544;2022-07-12T09:44:37;2.15;;;0.43;;
17927;SDS011;9089;58.396;15.544;2022-07-12T09:47:03;1.02;;;0.47;;
17927;SDS011;9089;58.396;15.544;2022-07-12T09:49:29;1.17;;;0.57;;
17927;SDS011;9089;58.396;15.544;2022-07-12T09:51:56;0.50;;;0.30;;
17927;SDS011;9089;58.396;15.544;2022-07-12T09:54:24;0.47;;;0.30;;
17927;SDS011;9089;58.396;15.544;2022-07-12T09:56:50;0.98;;;0.30;;
17927;SDS011;9089;58.396;15.544;2022-07-12T09:59:17;0.85;;;0.43;;
17927;SDS011;9089;58.396;15.544;2022-07-12T10:01:45;1.00;;;0.40;;
17927;SDS011;9089;58.396;15.544;2022-07-12T10:04:11;1.23;;;0.50;;
17927;SDS011;9089;58.396;15.544;2022-07-12T10:06:40;1.58;;;0.50;;
17927;SDS011;9089;58.396;15.544;2022-07-12T10:09:07;0.55;;;0.40;;
17927;SDS011;9089;58.396;15.544;2022-07-12T10:11:33;0.55;;;0.40;;
17927;SDS011;9089;58.396;15.544;2022-07-12T10:13:59;0.95;;;0.50;;
17927;SDS011;9089;58.396;15.544;2022-07-12T10:16:25;0.82;;;0.55;;
17927;SDS011;9089;58.396;15.544;2022-07-12T10:21:49;1.25;;;0.60;;
17927;SDS011;9089;58.396;15.544;2022-07-12T10:27:27;0.30;;;0.30;;
17927;SDS011;9089;58.396;15.544;2022-07-12T10:32:39;1.83;;;0.38;;
17927;SDS011;9089;58.396;15.544;2022-07-12T10:35:11;0.40;;;0.40;;
17927;SDS011;9089;58.396;15.544;2022-07-12T10:37:38;0.60;;;0.40;;
17927;SDS011;9089;58.396;15.544;2022-07-12T10:40:14;0.60;;;0.40;;
17927;SDS011;9089;58.396;15.544;2022-07-12T10:42:41;2.55;;;0.50;;
17927;SDS011;9089;58.396;15.544;2022-07-12T10:45:45;1.05;;;0.50;;
17927;SDS011;9089;58.396;15.544;2022-07-12T10:48:21;0.50;;;0.40;;
17927;SDS011;9089;58.396;15.544;2022-07-12T10:50:51;0.47;;;0.30;;
17927;SDS011;9089;58.396;15.544;2022-07-12T10:53:23;0.55;;;0.50;;
17927;SDS011;9089;58.396;15.544;2022-07-12T10:56:07;0.30;;;0.20;;
17927;SDS011;9089;58.396;15.544;2022-07-12T10:58:41;1.60;;;0.40;;
17927;SDS011;9089;58.396;15.544;2022-07-12T11:01:09;0.52;;;0.40;;
17927;SDS011;9089;58.396;15.544;2022-07-12T11:03:40;0.95;;;0.40;;
17927;SDS011;9089;58.396;15.544;2022-07-12T11:06:07;1.15;;;0.50;;
17927;SDS011;9089;58.396;15.544;2022-07-12T11:08:50;0.30;;;0.30;;
17927;SDS011;9089;58.396;15.544;2022-07-12T11:11:26;0.38;;;0.25;;
17927;SDS011;9089;58.396;15.544;2022-07-12T11:13:54;0.60;;;0.35;;
17927;SDS011;9089;58.396;15.544;2022-07-12T11:16:21;0.90;;;0.35;;
17927;SDS011;9089;58.396;15.544;2022-07-12T11:18:47;1.30;;;0.50;;
17927;SDS011;9089;58.396;15.544;2022-07-12T11:21:14;0.60;;;0.30;;
17927;SDS011;9089;58.396;15.544;2022-07-12T11:23:40;0.43;;;0.30;;
17927;SDS011;9089;58.396;15.544;2022-07-12T11:26:06;0.70;;;0.45;;
17927;SDS011;9089;58.396;15.544;2022-07-12T11:28:32;0.73;;;0.57;;
17927;SDS011;9089;58.396;15.544;2022-07-12T11:31:03;0.88;;;0.40;;
17927;SDS011;9089;58.396;15.544;2022-07-12T11:33:30;2.67;;;0.40;;
17927;SDS011;9089;58.396;15.544;2022-07-12T11:35:58;0.40;;;0.35;;
17927;SDS011;9089;58.396;15.544;2022-07-12T11:38:25;0.43;;;0.32;;
17927;SDS011;9089;58.396;15.544;2022-07-12T11:40:54;0.80;;;0.40;;
17927;SDS011;9089;58.396;15.544;2022-07-12T11:43:21;1.52;;;0.40;;
17927;SDS011;9089;58.396;15.544;2022-07-12T11:45:46;0.50;;;0.45;;
17927;SDS011;9089;58.396;15.544;2022-07-12T11:48:13;0.50;;;0.38;;
17927;SDS011;9089;58.396;15.544;2022-07-12T11:50:41;2.05;;;0.40;;
17927;SDS011;9089;58.396;15.544;2022-07-12T11:53:13;0.52;;;0.30;;
17927;SDS011;9089;58.396;15.544;2022-07-12T11:55:43;0.40;;;0.38;;
17927;SDS011;9089;58.396;15.544;2022-07-12T11:58:10;0.40;;;0.30;;
17927;SDS011;9089;58.396;15.544;2022-07-12T12:00:36;0.38;;;0.38;;
17927;SDS011;9089;58.396;15.544;2022-07-12T12:03:02;1.83;;;0.25;;
17927;SDS011;9089;58.396;15.544;2022-07-12T12:05:29;0.30;;;0.30;;
17927;SDS011;9089;58.396;15.544;2022-07-12T12:07:55;1.08;;;0.60;;
17927;SDS011;9089;58.396;15.544;2022-07-12T12:10:21;1.95;;;0.43;;
17927;SDS011;9089;58.396;15.544;2022-07-12T12:12:47;0.47;;;0.43;;
17927;SDS011;9089;58.396;15.544;2022-07-12T12:15:15;0.40;;;0.40;;
17927;SDS011;9089;58.396;15.544;2022-07-12T12:17:45;4.28;;;0.50;;
17927;SDS011;9089;58.396;15.544;2022-07-12T12:20:17;0.80;;;0.40;;
17927;SDS011;9089;58.396;15.544;2022-07-12T12:22:46;0.88;;;0.40;;
17927;SDS011;9089;58.396;15.544;2022-07-12T12:25:14;0.30;;;0.28;;
17927;SDS011;9089;58.396;15.544;2022-07-12T12:27:41;1.00;;;0.43;;
17927;SDS011;9089;58.396;15.544;2022-07-12T12:30:08;1.10;;;0.30;;
17927;SDS011;9089;58.396;15.544;2022-07-12T12:32:42;0.50;;;0.47;;
17927;SDS011;9089;58.396;15.544;2022-07-12T12:35:11;1.00;;;0.30;;
17927;SDS011;9089;58.396;15.544;2022-07-12T12:37:38;0.82;;;0.38;;
17927;SDS011;9089;58.396;15.544;2022-07-12T12:40:07;0.30;;;0.30;;
17927;SDS011;9089;58.396;15.544;2022-07-12T12:42:33;0.52;;;0.30;;
17927;SDS011;9089;58.396;15.544;2022-07-12T12:45:01;0.30;;;0.30;;
17927;SDS011;9089;58.396;15.544;2022-07-12T12:47:27;3.22;;;0.50;;
17927;SDS011;9089;58.396;15.544;2022-07-12T12:49:55;0.85;;;0.40;;
17927;SDS011;9089;58.396;15.544;2022-07-12T12:52:28;0.52;;;0.30;;
17927;SDS011;9089;58.396;15.544;2022-07-12T12:54:55;1.20;;;0.30;;
17927;SDS011;9089;58.396;15.544;2022-07-12T12:57:23;0.68;;;0.45;;
17927;SDS011;9089;58.396;15.544;2022-07-12T12:59:51;0.57;;;0.40;;
17927;SDS011;9089;58.396;15.544;2022-07-12T13:02:18;0.70;;;0.40;;
17927;SDS011;9089;58.396;15.544;2022-07-12T13:04:45;0.63;;;0.47;;
17927;SDS011;9089;58.396;15.544;2022-07-12T13:07:11;1.75;;;0.52;;
17927;SDS011;9089;58.396;15.544;2022-07-12T13:09:37;1.33;;;0.40;;
17927;SDS011;9089;58.396;15.544;2022-07-12T13:12:03;0.50;;;0.30;;
17927;SDS011;9089;58.396;15.544;2022-07-12T13:14:31;2.58;;;0.30;;
17927;SDS011;9089;58.396;15.544;2022-07-12T13:16:56;0.30;;;0.30;;
17927;SDS011;9089;58.396;15.544;2022-07-12T13:19:22;0.40;;;0.40;;
17927;SDS011;9089;58.396;15.544;2022-07-12T13:21:48;0.40;;;0.28;;
17927;SDS011;9089;58.396;15.544;2022-07-12T13:24:13;0.80;;;0.47;;
17927;SDS011;9089;58.396;15.544;2022-07-12T13:26:39;0.55;;;0.40;;
17927;SDS011;9089;58.396;15.544;2022-07-12T13:29:05;0.40;;;0.30;;
17927;SDS011;9089;58.396;15.544;2022-07-12T13:31:32;0.82;;;0.30;;
17927;SDS011;9089;58.396;15.544;2022-07-12T13:33:58;0.40;;;0.30;;
17927;SDS011;9089;58.396;15.544;2022-07-12T13:36:23;0.95;;;0.32;;
17927;SDS011;9089;58.396;15.544;2022-07-12T13:38:49;0.40;;;0.40;;
17927;SDS011;9089;58.396;15.544;2022-07-12T13:41:15;0.85;;;0.43;;
17927;SDS011;9089;58.396;15.544;2022-07-12T13:43:40;2.30;;;0.35;;
17927;SDS011;9089;58.396;15.544;2022-07-12T13:46:06;0.68;;;0.30;;
17927;SDS011;9089;58.396;15.544;2022-07-12T13:48:33;0.40;;;0.25;;
17927;SDS011;9089;58.396;15.544;2022-07-12T13:50:59;0.52;;;0.40;;
17927;SDS011;9089;58.396;15.544;2022-07-12T13:53:25;0.55;;;0.30;;
17927;SDS011;9089;58.396;15.544;2022-07-12T13:55:51;1.08;;;0.40;;
17927;SDS011;9089;58.396;15.544;2022-07-12T13:58:16;0.25;;;0.25;;
17927;SDS011;9089;58.396;15.544;2022-07-12T14:00:42;0.30;;;0.20;;
17927;SDS011;9089;58.396;15.544;2022-07-12T14:03:08;0.30;;;0.28;;
17927;SDS011;9089;58.396;15.544;2022-07-12T14:05:35;0.40;;;0.20;;
17927;SDS011;9089;58.396;15.544;2022-07-12T14:08:02;0.43;;;0.30;;
17927;SDS011;9089;58.396;15.544;2022-07-12T14:10:28;0.60;;;0.20;;
17927;SDS011;9089;58.396;15.544;2022-07-12T14:12:54;0.80;;;0.30;;
17927;SDS011;9089;58.396;15.544;2022-07-12T14:15:20;0.40;;;0.30;;
17927;SDS011;9089;58.396;15.544;2022-07-12T14:18:05;2.15;;;0.50;;
17927;SDS011;9089;58.396;15.544;2022-07-12T14:20:32;0.50;;;0.30;;
17927;SDS011;9089;58.396;15.544;2022-07-12T14:23:00;0.63;;;0.30;;
17927;SDS011;9089;58.396;15.544;2022-07-12T14:25:26;0.30;;;0.30;;
17927;SDS011;9089;58.396;15.544;2022-07-12T14:27:52;0.30;;;0.30;;
17927;SDS011;9089;58.396;15.544;2022-07-12T14:30:18;1.55;;;0.43;;
17927;SDS011;9089;58.396;15.544;2022-07-12T14:32:44;0.40;;;0.30;;
17927;SDS011;9089;58.396;15.544;2022-07-12T14:35:09;0.55;;;0.22;;
17927;SDS011;9089;58.396;15.544;2022-07-12T14:37:36;1.17;;;0.32;;
17927;SDS011;9089;58.396;15.544;2022-07-12T14:40:04;1.75;;;0.35;;
17927;SDS011;9089;58.396;15.544;2022-07-12T14:42:30;0.57;;;0.40;;
17927;SDS011;9089;58.396;15.544;2022-07-12T14:44:56;1.27;;;0.40;;
17927;SDS011;9089;58.396;15.544;2022-07-12T14:47:22;1.05;;;0.40;;
17927;SDS011;9089;58.396;15.544;2022-07-12T14:49:48;0.90;;;0.50;;
17927;SDS011;9089;58.396;15.544;2022-07-12T14:52:14;0.52;;;0.40;;
17927;SDS011;9089;58.396;15.544;2022-07-12T14:54:41;0.60;;;0.30;;
17927;SDS011;9089;58.396;15.544;2022-07-12T14:57:08;0.70;;;0.30;;